Terminal Aerodrome Forecast
Issued by NWS Caribou, ME

Home | Current Version | Previous Version | Text Only | Print | Product List | Glossary On
Versions: 1 2 3 4 5 6 7 8 9 10 11 12 13 14 15 16 17 18 19 20 21
658
FTUS41 KCAR 262333
TAFBGR
TAF
KBGR 262333Z 2700/2724 VRB03KT P6SM SCT250
     FM270700 VRB03KT P6SM OVC025
     FM270900 13005KT 2SM -SN OVC025
     FM271200 14008KT 1SM -SNPL OVC015
     FM271600 14007KT 1/2SM FZRASNPL OVC003
     FM272000 13006KT 1SM -RASNPL OVC003=

USA.gov is the U.S. government's official web portal to all federal, state and local government web resources and services.